sensor_id;sensor_type;location;lat;lon;timestamp;temperature;humidity
19168;DHT22;9716;53.114;18.040;2023-11-19T00:00:30;2.00;99.90
19168;DHT22;9716;53.114;18.040;2023-11-19T00:03:20;1.90;99.90
19168;DHT22;9716;53.114;18.040;2023-11-19T00:05:49;1.90;99.90
19168;DHT22;9716;53.114;18.040;2023-11-19T00:08:20;1.90;99.90
19168;DHT22;9716;53.114;18.040;2023-11-19T00:10:48;1.80;99.90
19168;DHT22;9716;53.114;18.040;2023-11-19T00:13:18;1.80;99.90
19168;DHT22;9716;53.114;18.040;2023-11-19T00:15:48;1.70;99.90
19168;DHT22;9716;53.114;18.040;2023-11-19T00:18:17;1.70;99.90
19168;DHT22;9716;53.114;18.040;2023-11-19T00:20:46;1.70;99.90
19168;DHT22;9716;53.114;18.040;2023-11-19T00:23:15;1.70;99.90
19168;DHT22;9716;53.114;18.040;2023-11-19T00:25:45;1.60;99.90
19168;DHT22;9716;53.114;18.040;2023-11-19T00:28:15;1.60;99.90
19168;DHT22;9716;53.114;18.040;2023-11-19T00:30:44;1.60;99.90
19168;DHT22;9716;53.114;18.040;2023-11-19T00:33:13;1.60;99.90
19168;DHT22;9716;53.114;18.040;2023-11-19T00:35:42;1.50;99.90
19168;DHT22;9716;53.114;18.040;2023-11-19T00:38:11;1.50;99.90
19168;DHT22;9716;53.114;18.040;2023-11-19T00:40:40;1.50;99.90
19168;DHT22;9716;53.114;18.040;2023-11-19T00:43:10;1.40;99.90
19168;DHT22;9716;53.114;18.040;2023-11-19T00:45:39;1.40;99.90
19168;DHT22;9716;53.114;18.040;2023-11-19T00:48:07;1.40;99.90
19168;DHT22;9716;53.114;18.040;2023-11-19T00:50:36;1.40;99.90
19168;DHT22;9716;53.114;18.040;2023-11-19T00:53:06;1.40;99.90
19168;DHT22;9716;53.114;18.040;2023-11-19T00:55:35;1.40;99.90
19168;DHT22;9716;53.114;18.040;2023-11-19T00:58:15;1.30;99.90
19168;DHT22;9716;53.114;18.040;2023-11-19T01:00:44;1.30;99.90
19168;DHT22;9716;53.114;18.040;2023-11-19T01:03:13;1.30;99.90
19168;DHT22;9716;53.114;18.040;2023-11-19T01:05:42;1.30;99.90
19168;DHT22;9716;53.114;18.040;2023-11-19T01:08:11;1.30;99.90
19168;DHT22;9716;53.114;18.040;2023-11-19T01:10:40;1.30;99.90
19168;DHT22;9716;53.114;18.040;2023-11-19T01:13:08;1.20;99.90
19168;DHT22;9716;53.114;18.040;2023-11-19T01:15:38;1.20;99.90
19168;DHT22;9716;53.114;18.040;2023-11-19T01:18:08;1.10;99.90
19168;DHT22;9716;53.114;18.040;2023-11-19T01:20:37;1.10;99.90
19168;DHT22;9716;53.114;18.040;2023-11-19T01:23:06;1.10;99.90
19168;DHT22;9716;53.114;18.040;2023-11-19T01:25:34;1.10;99.90
19168;DHT22;9716;53.114;18.040;2023-11-19T01:28:05;1.10;99.90
19168;DHT22;9716;53.114;18.040;2023-11-19T01:30:34;1.00;99.90
19168;DHT22;9716;53.114;18.040;2023-11-19T01:33:04;0.90;99.90
19168;DHT22;9716;53.114;18.040;2023-11-19T01:35:34;1.00;99.90
19168;DHT22;9716;53.114;18.040;2023-11-19T01:38:03;1.00;99.90
19168;DHT22;9716;53.114;18.040;2023-11-19T01:40:31;0.90;99.90
19168;DHT22;9716;53.114;18.040;2023-11-19T01:43:00;0.90;99.90
19168;DHT22;9716;53.114;18.040;2023-11-19T01:45:30;0.90;99.90
19168;DHT22;9716;53.114;18.040;2023-11-19T01:48:00;0.90;99.90
19168;DHT22;9716;53.114;18.040;2023-11-19T01:50:32;0.80;99.90
19168;DHT22;9716;53.114;18.040;2023-11-19T01:53:01;0.80;99.90
19168;DHT22;9716;53.114;18.040;2023-11-19T01:55:29;0.80;99.90
19168;DHT22;9716;53.114;18.040;2023-11-19T01:58:00;0.80;99.90
19168;DHT22;9716;53.114;18.040;2023-11-19T02:00:30;0.80;99.90
19168;DHT22;9716;53.114;18.040;2023-11-19T02:03:00;0.80;99.90
19168;DHT22;9716;53.114;18.040;2023-11-19T02:05:32;0.70;99.90
19168;DHT22;9716;53.114;18.040;2023-11-19T02:08:01;0.70;99.90
19168;DHT22;9716;53.114;18.040;2023-11-19T02:10:30;0.70;99.90
19168;DHT22;9716;53.114;18.040;2023-11-19T02:13:00;0.60;99.90
19168;DHT22;9716;53.114;18.040;2023-11-19T02:15:33;0.60;99.90
19168;DHT22;9716;53.114;18.040;2023-11-19T02:18:18;0.60;99.90
19168;DHT22;9716;53.114;18.040;2023-11-19T02:20:48;0.60;99.90
19168;DHT22;9716;53.114;18.040;2023-11-19T02:23:18;0.60;99.90
19168;DHT22;9716;53.114;18.040;2023-11-19T02:26:00;0.60;99.90
19168;DHT22;9716;53.114;18.040;2023-11-19T02:28:31;0.60;99.90
19168;DHT22;9716;53.114;18.040;2023-11-19T02:31:00;0.60;99.90
19168;DHT22;9716;53.114;18.040;2023-11-19T02:33:28;0.50;99.90
19168;DHT22;9716;53.114;18.040;2023-11-19T02:35:57;0.50;99.90
19168;DHT22;9716;53.114;18.040;2023-11-19T02:38:25;0.50;99.90
19168;DHT22;9716;53.114;18.040;2023-11-19T02:40:54;0.50;99.90
19168;DHT22;9716;53.114;18.040;2023-11-19T02:43:22;0.60;99.90
19168;DHT22;9716;53.114;18.040;2023-11-19T02:45:52;0.60;99.90
19168;DHT22;9716;53.114;18.040;2023-11-19T02:48:23;0.50;99.90
19168;DHT22;9716;53.114;18.040;2023-11-19T02:50:51;0.60;99.90
19168;DHT22;9716;53.114;18.040;2023-11-19T02:53:20;0.60;99.90
19168;DHT22;9716;53.114;18.040;2023-11-19T02:55:49;0.60;99.90
19168;DHT22;9716;53.114;18.040;2023-11-19T02:58:18;0.60;99.90
19168;DHT22;9716;53.114;18.040;2023-11-19T03:00:53;0.60;99.90
19168;DHT22;9716;53.114;18.040;2023-11-19T03:03:25;0.70;99.90
19168;DHT22;9716;53.114;18.040;2023-11-19T03:05:58;0.70;99.90
19168;DHT22;9716;53.114;18.040;2023-11-19T03:08:29;0.70;99.90
19168;DHT22;9716;53.114;18.040;2023-11-19T03:10:57;0.80;99.90
19168;DHT22;9716;53.114;18.040;2023-11-19T03:13:26;0.80;99.90
19168;DHT22;9716;53.114;18.040;2023-11-19T03:15:56;0.90;99.90
19168;DHT22;9716;53.114;18.040;2023-11-19T03:18:24;0.90;99.90
19168;DHT22;9716;53.114;18.040;2023-11-19T03:20:54;0.90;99.90
19168;DHT22;9716;53.114;18.040;2023-11-19T03:23:22;1.00;99.90
19168;DHT22;9716;53.114;18.040;2023-11-19T03:25:50;1.00;99.90
19168;DHT22;9716;53.114;18.040;2023-11-19T03:28:19;1.00;99.90
19168;DHT22;9716;53.114;18.040;2023-11-19T03:30:47;1.00;99.90
19168;DHT22;9716;53.114;18.040;2023-11-19T03:33:17;1.10;99.90
19168;DHT22;9716;53.114;18.040;2023-11-19T03:35:46;1.10;99.90
19168;DHT22;9716;53.114;18.040;2023-11-19T03:38:14;1.10;99.90
19168;DHT22;9716;53.114;18.040;2023-11-19T03:40:43;1.10;99.90
19168;DHT22;9716;53.114;18.040;2023-11-19T03:43:11;1.10;99.90
19168;DHT22;9716;53.114;18.040;2023-11-19T03:45:40;1.20;99.90
19168;DHT22;9716;53.114;18.040;2023-11-19T03:48:09;1.20;99.90
19168;DHT22;9716;53.114;18.040;2023-11-19T03:50:38;1.20;99.90
19168;DHT22;9716;53.114;18.040;2023-11-19T03:53:07;1.20;99.90
19168;DHT22;9716;53.114;18.040;2023-11-19T03:55:35;1.20;99.90
19168;DHT22;9716;53.114;18.040;2023-11-19T03:58:04;1.30;99.90
19168;DHT22;9716;53.114;18.040;2023-11-19T04:00:33;1.30;99.90
19168;DHT22;9716;53.114;18.040;2023-11-19T04:03:02;1.30;99.90
19168;DHT22;9716;53.114;18.040;2023-11-19T04:05:30;1.30;99.90
19168;DHT22;9716;53.114;18.040;2023-11-19T04:08:00;1.40;99.90
19168;DHT22;9716;53.114;18.040;2023-11-19T04:10:28;1.40;99.90
19168;DHT22;9716;53.114;18.040;2023-11-19T04:12:57;1.40;99.90
19168;DHT22;9716;53.114;18.040;2023-11-19T04:15:25;1.40;99.90
19168;DHT22;9716;53.114;18.040;2023-11-19T04:17:53;1.50;99.90
19168;DHT22;9716;53.114;18.040;2023-11-19T04:20:22;1.50;99.90
19168;DHT22;9716;53.114;18.040;2023-11-19T04:22:50;1.50;99.90
19168;DHT22;9716;53.114;18.040;2023-11-19T04:25:22;1.50;99.90
19168;DHT22;9716;53.114;18.040;2023-11-19T04:27:53;1.50;99.90
19168;DHT22;9716;53.114;18.040;2023-11-19T04:30:21;1.50;99.90
19168;DHT22;9716;53.114;18.040;2023-11-19T04:32:50;1.60;99.90
19168;DHT22;9716;53.114;18.040;2023-11-19T04:35:18;1.50;99.90
19168;DHT22;9716;53.114;18.040;2023-11-19T04:37:47;1.50;99.90
19168;DHT22;9716;53.114;18.040;2023-11-19T04:40:16;1.60;99.90
19168;DHT22;9716;53.114;18.040;2023-11-19T04:42:47;1.60;99.90
19168;DHT22;9716;53.114;18.040;2023-11-19T04:45:15;1.60;99.90
19168;DHT22;9716;53.114;18.040;2023-11-19T04:47:44;1.60;99.90
19168;DHT22;9716;53.114;18.040;2023-11-19T04:50:12;1.60;99.90
19168;DHT22;9716;53.114;18.040;2023-11-19T04:52:41;1.60;99.90
19168;DHT22;9716;53.114;18.040;2023-11-19T04:55:12;1.60;99.90
19168;DHT22;9716;53.114;18.040;2023-11-19T04:57:42;1.70;99.90
19168;DHT22;9716;53.114;18.040;2023-11-19T05:00:13;1.70;99.90
19168;DHT22;9716;53.114;18.040;2023-11-19T05:02:44;1.70;99.90
19168;DHT22;9716;53.114;18.040;2023-11-19T05:05:12;1.70;99.90
19168;DHT22;9716;53.114;18.040;2023-11-19T05:07:41;1.70;99.90
19168;DHT22;9716;53.114;18.040;2023-11-19T05:10:10;1.70;99.90
19168;DHT22;9716;53.114;18.040;2023-11-19T05:12:38;1.70;99.90
19168;DHT22;9716;53.114;18.040;2023-11-19T05:15:09;1.70;99.90
19168;DHT22;9716;53.114;18.040;2023-11-19T05:17:40;1.80;99.90
19168;DHT22;9716;53.114;18.040;2023-11-19T05:20:09;1.80;99.90
19168;DHT22;9716;53.114;18.040;2023-11-19T05:22:41;1.80;99.90
19168;DHT22;9716;53.114;18.040;2023-11-19T05:25:10;1.80;99.90
19168;DHT22;9716;53.114;18.040;2023-11-19T05:27:39;1.80;99.90
19168;DHT22;9716;53.114;18.040;2023-11-19T05:30:07;1.80;99.90
19168;DHT22;9716;53.114;18.040;2023-11-19T05:32:39;1.80;99.90
19168;DHT22;9716;53.114;18.040;2023-11-19T05:35:08;1.90;99.90
19168;DHT22;9716;53.114;18.040;2023-11-19T05:37:37;1.90;99.90
19168;DHT22;9716;53.114;18.040;2023-11-19T05:40:07;1.90;99.90
19168;DHT22;9716;53.114;18.040;2023-11-19T05:42:42;1.90;99.90
19168;DHT22;9716;53.114;18.040;2023-11-19T05:45:13;1.90;99.90
19168;DHT22;9716;53.114;18.040;2023-11-19T05:47:43;1.90;99.90
19168;DHT22;9716;53.114;18.040;2023-11-19T05:50:11;1.90;99.90
19168;DHT22;9716;53.114;18.040;2023-11-19T05:52:40;2.00;99.90
19168;DHT22;9716;53.114;18.040;2023-11-19T05:55:08;2.00;99.90
19168;DHT22;9716;53.114;18.040;2023-11-19T05:57:38;2.00;99.90
19168;DHT22;9716;53.114;18.040;2023-11-19T06:00:11;2.00;99.90
19168;DHT22;9716;53.114;18.040;2023-11-19T06:02:44;2.00;99.90
19168;DHT22;9716;53.114;18.040;2023-11-19T06:05:12;2.00;99.90
19168;DHT22;9716;53.114;18.040;2023-11-19T06:07:41;2.00;99.90
19168;DHT22;9716;53.114;18.040;2023-11-19T06:10:10;2.00;99.90
19168;DHT22;9716;53.114;18.040;2023-11-19T06:12:40;2.00;99.90
19168;DHT22;9716;53.114;18.040;2023-11-19T06:15:09;2.00;99.90
19168;DHT22;9716;53.114;18.040;2023-11-19T06:17:39;2.10;99.90
19168;DHT22;9716;53.114;18.040;2023-11-19T06:20:10;2.10;99.90
19168;DHT22;9716;53.114;18.040;2023-11-19T06:22:39;2.00;99.90
19168;DHT22;9716;53.114;18.040;2023-11-19T06:25:09;2.10;99.90
19168;DHT22;9716;53.114;18.040;2023-11-19T06:27:40;2.10;99.90
19168;DHT22;9716;53.114;18.040;2023-11-19T06:30:08;2.00;99.90
19168;DHT22;9716;53.114;18.040;2023-11-19T06:32:37;2.00;99.90
19168;DHT22;9716;53.114;18.040;2023-11-19T06:35:06;2.00;99.90
19168;DHT22;9716;53.114;18.040;2023-11-19T06:37:38;2.10;99.90
19168;DHT22;9716;53.114;18.040;2023-11-19T06:40:08;2.10;99.90
19168;DHT22;9716;53.114;18.040;2023-11-19T06:42:37;2.10;99.90
19168;DHT22;9716;53.114;18.040;2023-11-19T06:45:07;2.10;99.90
19168;DHT22;9716;53.114;18.040;2023-11-19T06:47:35;2.10;99.90
19168;DHT22;9716;53.114;18.040;2023-11-19T06:50:05;2.10;99.90
19168;DHT22;9716;53.114;18.040;2023-11-19T06:52:35;2.10;99.90
19168;DHT22;9716;53.114;18.040;2023-11-19T06:55:05;2.20;99.90
19168;DHT22;9716;53.114;18.040;2023-11-19T06:57:35;2.20;99.90
19168;DHT22;9716;53.114;18.040;2023-11-19T07:00:05;2.20;99.90
19168;DHT22;9716;53.114;18.040;2023-11-19T07:02:34;2.20;99.90
19168;DHT22;9716;53.114;18.040;2023-11-19T07:05:02;2.30;99.90
19168;DHT22;9716;53.114;18.040;2023-11-19T07:07:32;2.30;99.90
19168;DHT22;9716;53.114;18.040;2023-11-19T07:10:02;2.30;99.90
19168;DHT22;9716;53.114;18.040;2023-11-19T07:12:32;2.40;99.90
19168;DHT22;9716;53.114;18.040;2023-11-19T07:15:02;2.40;99.90
19168;DHT22;9716;53.114;18.040;2023-11-19T07:17:31;2.40;99.90
19168;DHT22;9716;53.114;18.040;2023-11-19T07:19:59;2.50;99.90
19168;DHT22;9716;53.114;18.040;2023-11-19T07:22:28;2.50;99.90
19168;DHT22;9716;53.114;18.040;2023-11-19T07:24:57;2.50;99.90
19168;DHT22;9716;53.114;18.040;2023-11-19T07:27:27;2.50;99.90
19168;DHT22;9716;53.114;18.040;2023-11-19T07:29:56;2.60;99.90
19168;DHT22;9716;53.114;18.040;2023-11-19T07:32:25;2.60;99.90
19168;DHT22;9716;53.114;18.040;2023-11-19T07:34:53;2.60;99.90
19168;DHT22;9716;53.114;18.040;2023-11-19T07:37:23;2.70;99.90
19168;DHT22;9716;53.114;18.040;2023-11-19T07:39:52;2.70;99.90
19168;DHT22;9716;53.114;18.040;2023-11-19T07:42:20;2.70;99.90
19168;DHT22;9716;53.114;18.040;2023-11-19T07:44:51;2.70;99.90
19168;DHT22;9716;53.114;18.040;2023-11-19T07:47:21;2.80;99.90
19168;DHT22;9716;53.114;18.040;2023-11-19T07:49:51;2.80;99.90
19168;DHT22;9716;53.114;18.040;2023-11-19T07:52:19;2.80;99.90
19168;DHT22;9716;53.114;18.040;2023-11-19T07:54:48;2.90;99.90
19168;DHT22;9716;53.114;18.040;2023-11-19T07:57:17;2.90;99.90
19168;DHT22;9716;53.114;18.040;2023-11-19T07:59:45;2.90;99.90
19168;DHT22;9716;53.114;18.040;2023-11-19T08:02:15;2.90;99.90
19168;DHT22;9716;53.114;18.040;2023-11-19T08:04:43;2.90;99.90
19168;DHT22;9716;53.114;18.040;2023-11-19T08:07:13;3.00;99.90
19168;DHT22;9716;53.114;18.040;2023-11-19T08:09:42;3.00;99.90
19168;DHT22;9716;53.114;18.040;2023-11-19T08:12:10;3.00;99.90
19168;DHT22;9716;53.114;18.040;2023-11-19T08:14:41;3.00;99.90
19168;DHT22;9716;53.114;18.040;2023-11-19T08:17:09;3.00;99.90
19168;DHT22;9716;53.114;18.040;2023-11-19T08:19:39;3.10;99.90
19168;DHT22;9716;53.114;18.040;2023-11-19T08:22:08;3.10;99.90
19168;DHT22;9716;53.114;18.040;2023-11-19T08:24:36;3.10;99.90
19168;DHT22;9716;53.114;18.040;2023-11-19T08:27:05;3.10;99.90
19168;DHT22;9716;53.114;18.040;2023-11-19T08:29:33;3.10;99.90
19168;DHT22;9716;53.114;18.040;2023-11-19T08:32:02;3.10;99.90
19168;DHT22;9716;53.114;18.040;2023-11-19T08:34:31;3.10;99.90
19168;DHT22;9716;53.114;18.040;2023-11-19T08:37:01;3.10;99.90
19168;DHT22;9716;53.114;18.040;2023-11-19T08:39:30;3.20;99.90
19168;DHT22;9716;53.114;18.040;2023-11-19T08:41:58;3.20;99.90
19168;DHT22;9716;53.114;18.040;2023-11-19T08:44:27;3.20;99.90
19168;DHT22;9716;53.114;18.040;2023-11-19T08:46:56;3.20;99.90
19168;DHT22;9716;53.114;18.040;2023-11-19T08:49:24;3.30;99.90
19168;DHT22;9716;53.114;18.040;2023-11-19T08:51:53;3.30;99.90
19168;DHT22;9716;53.114;18.040;2023-11-19T08:54:22;3.30;99.90
19168;DHT22;9716;53.114;18.040;2023-11-19T08:56:52;3.30;99.90
19168;DHT22;9716;53.114;18.040;2023-11-19T08:59:20;3.30;99.90
19168;DHT22;9716;53.114;18.040;2023-11-19T09:01:49;3.30;99.90
19168;DHT22;9716;53.114;18.040;2023-11-19T09:04:17;3.40;99.90
19168;DHT22;9716;53.114;18.040;2023-11-19T09:06:50;3.40;99.90
19168;DHT22;9716;53.114;18.040;2023-11-19T09:09:18;3.40;99.90
19168;DHT22;9716;53.114;18.040;2023-11-19T09:11:48;3.40;99.90
19168;DHT22;9716;53.114;18.040;2023-11-19T09:14:16;3.50;99.90
19168;DHT22;9716;53.114;18.040;2023-11-19T09:16:45;3.50;99.90
19168;DHT22;9716;53.114;18.040;2023-11-19T09:19:13;3.50;99.90
19168;DHT22;9716;53.114;18.040;2023-11-19T09:21:42;3.60;99.90
19168;DHT22;9716;53.114;18.040;2023-11-19T09:24:11;3.60;99.90
19168;DHT22;9716;53.114;18.040;2023-11-19T09:26:43;3.60;99.90
19168;DHT22;9716;53.114;18.040;2023-11-19T09:29:13;3.60;99.90
19168;DHT22;9716;53.114;18.040;2023-11-19T09:31:42;3.60;99.90
19168;DHT22;9716;53.114;18.040;2023-11-19T09:34:10;3.60;99.90
19168;DHT22;9716;53.114;18.040;2023-11-19T09:36:39;3.60;99.90
19168;DHT22;9716;53.114;18.040;2023-11-19T09:39:11;3.60;99.90
19168;DHT22;9716;53.114;18.040;2023-11-19T09:41:40;3.70;99.90
19168;DHT22;9716;53.114;18.040;2023-11-19T09:44:09;3.60;99.90
19168;DHT22;9716;53.114;18.040;2023-11-19T09:46:41;3.70;99.90
19168;DHT22;9716;53.114;18.040;2023-11-19T09:49:10;3.70;99.90
19168;DHT22;9716;53.114;18.040;2023-11-19T09:51:39;3.70;99.90
19168;DHT22;9716;53.114;18.040;2023-11-19T09:54:07;3.70;99.90
19168;DHT22;9716;53.114;18.040;2023-11-19T09:56:37;3.70;99.90
19168;DHT22;9716;53.114;18.040;2023-11-19T09:59:07;3.70;99.90
19168;DHT22;9716;53.114;18.040;2023-11-19T10:01:37;3.70;99.90
19168;DHT22;9716;53.114;18.040;2023-11-19T10:04:08;3.70;99.90
19168;DHT22;9716;53.114;18.040;2023-11-19T10:06:38;3.70;99.90
19168;DHT22;9716;53.114;18.040;2023-11-19T10:09:06;3.70;99.90
19168;DHT22;9716;53.114;18.040;2023-11-19T10:11:35;3.70;99.90
19168;DHT22;9716;53.114;18.040;2023-11-19T10:14:03;3.70;99.90
19168;DHT22;9716;53.114;18.040;2023-11-19T10:16:34;3.70;99.90
19168;DHT22;9716;53.114;18.040;2023-11-19T10:19:02;3.70;99.90
19168;DHT22;9716;53.114;18.040;2023-11-19T10:21:34;3.80;99.90
19168;DHT22;9716;53.114;18.040;2023-11-19T10:24:03;3.80;99.90
19168;DHT22;9716;53.114;18.040;2023-11-19T10:26:36;3.90;99.90
19168;DHT22;9716;53.114;18.040;2023-11-19T10:29:05;3.90;99.90
19168;DHT22;9716;53.114;18.040;2023-11-19T10:31:33;3.90;99.90
19168;DHT22;9716;53.114;18.040;2023-11-19T10:34:02;4.00;99.90
19168;DHT22;9716;53.114;18.040;2023-11-19T10:36:39;4.10;99.90
19168;DHT22;9716;53.114;18.040;2023-11-19T10:39:09;4.10;99.90
19168;DHT22;9716;53.114;18.040;2023-11-19T10:41:37;4.20;99.90
19168;DHT22;9716;53.114;18.040;2023-11-19T10:44:06;4.20;99.90
19168;DHT22;9716;53.114;18.040;2023-11-19T10:46:37;4.20;99.90
19168;DHT22;9716;53.114;18.040;2023-11-19T10:49:07;4.20;99.90
19168;DHT22;9716;53.114;18.040;2023-11-19T10:51:36;4.20;99.90
19168;DHT22;9716;53.114;18.040;2023-11-19T10:54:06;4.20;99.90
19168;DHT22;9716;53.114;18.040;2023-11-19T10:56:34;4.20;99.90
19168;DHT22;9716;53.114;18.040;2023-11-19T10:59:03;4.10;99.90
19168;DHT22;9716;53.114;18.040;2023-11-19T11:01:52;4.10;99.90
19168;DHT22;9716;53.114;18.040;2023-11-19T11:04:45;4.10;99.90
19168;DHT22;9716;53.114;18.040;2023-11-19T11:07:17;4.00;99.90
19168;DHT22;9716;53.114;18.040;2023-11-19T11:10:05;4.00;99.90
19168;DHT22;9716;53.114;18.040;2023-11-19T11:12:37;3.90;99.90
19168;DHT22;9716;53.114;18.040;2023-11-19T11:15:07;3.90;99.90
19168;DHT22;9716;53.114;18.040;2023-11-19T11:17:39;3.80;99.90
19168;DHT22;9716;53.114;18.040;2023-11-19T11:20:08;3.80;99.90
19168;DHT22;9716;53.114;18.040;2023-11-19T11:22:49;3.70;99.90
19168;DHT22;9716;53.114;18.040;2023-11-19T11:25:32;3.60;99.90
19168;DHT22;9716;53.114;18.040;2023-11-19T11:28:16;3.60;99.90
19168;DHT22;9716;53.114;18.040;2023-11-19T11:30:55;3.50;99.90
19168;DHT22;9716;53.114;18.040;2023-11-19T11:33:38;3.40;99.90
19168;DHT22;9716;53.114;18.040;2023-11-19T11:36:15;3.40;99.90
19168;DHT22;9716;53.114;18.040;2023-11-19T11:38:49;3.30;99.90
19168;DHT22;9716;53.114;18.040;2023-11-19T11:41:20;3.30;99.90
19168;DHT22;9716;53.114;18.040;2023-11-19T11:43:55;3.20;99.90
19168;DHT22;9716;53.114;18.040;2023-11-19T11:46:55;3.20;99.90
19168;DHT22;9716;53.114;18.040;2023-11-19T11:49:28;3.10;99.90
19168;DHT22;9716;53.114;18.040;2023-11-19T11:51:59;3.10;99.90
19168;DHT22;9716;53.114;18.040;2023-11-19T11:54:28;3.10;99.90
19168;DHT22;9716;53.114;18.040;2023-11-19T11:57:10;3.00;99.90
19168;DHT22;9716;53.114;18.040;2023-11-19T11:59:48;3.00;99.90
19168;DHT22;9716;53.114;18.040;2023-11-19T12:02:18;3.00;99.90
19168;DHT22;9716;53.114;18.040;2023-11-19T12:04:49;3.00;99.90
19168;DHT22;9716;53.114;18.040;2023-11-19T12:07:19;3.00;99.90
19168;DHT22;9716;53.114;18.040;2023-11-19T12:09:52;2.90;99.90
19168;DHT22;9716;53.114;18.040;2023-11-19T12:12:26;2.90;99.90
19168;DHT22;9716;53.114;18.040;2023-11-19T12:15:06;2.90;99.90
19168;DHT22;9716;53.114;18.040;2023-11-19T12:17:46;2.90;99.90
19168;DHT22;9716;53.114;18.040;2023-11-19T12:20:18;2.90;99.90
19168;DHT22;9716;53.114;18.040;2023-11-19T12:22:51;2.90;99.90
19168;DHT22;9716;53.114;18.040;2023-11-19T12:25:20;2.80;99.90
19168;DHT22;9716;53.114;18.040;2023-11-19T12:27:51;2.80;99.90
19168;DHT22;9716;53.114;18.040;2023-11-19T12:30:21;2.80;99.90
19168;DHT22;9716;53.114;18.040;2023-11-19T12:32:51;2.80;99.90
19168;DHT22;9716;53.114;18.040;2023-11-19T12:35:22;2.80;99.90
19168;DHT22;9716;53.114;18.040;2023-11-19T12:37:52;2.80;99.90
19168;DHT22;9716;53.114;18.040;2023-11-19T12:40:22;2.80;99.90
19168;DHT22;9716;53.114;18.040;2023-11-19T12:42:53;2.80;99.90
19168;DHT22;9716;53.114;18.040;2023-11-19T12:45:22;2.80;99.90
19168;DHT22;9716;53.114;18.040;2023-11-19T12:48:04;2.80;99.90
19168;DHT22;9716;53.114;18.040;2023-11-19T12:50:51;2.80;99.90
19168;DHT22;9716;53.114;18.040;2023-11-19T12:53:20;2.80;99.90
19168;DHT22;9716;53.114;18.040;2023-11-19T12:55:49;2.80;99.90
19168;DHT22;9716;53.114;18.040;2023-11-19T12:58:33;2.80;99.90
19168;DHT22;9716;53.114;18.040;2023-11-19T13:01:04;2.70;99.90
19168;DHT22;9716;53.114;18.040;2023-11-19T13:03:33;2.70;99.90
19168;DHT22;9716;53.114;18.040;2023-11-19T13:06:04;2.80;99.90
19168;DHT22;9716;53.114;18.040;2023-11-19T13:08:38;2.80;99.90
19168;DHT22;9716;53.114;18.040;2023-11-19T13:11:08;2.80;99.90
19168;DHT22;9716;53.114;18.040;2023-11-19T13:13:58;2.80;99.90
19168;DHT22;9716;53.114;18.040;2023-11-19T13:16:28;2.80;99.90
19168;DHT22;9716;53.114;18.040;2023-11-19T13:18:57;2.80;99.90
19168;DHT22;9716;53.114;18.040;2023-11-19T13:21:26;2.80;99.90
19168;DHT22;9716;53.114;18.040;2023-11-19T13:23:55;2.90;99.90
19168;DHT22;9716;53.114;18.040;2023-11-19T13:26:24;2.80;99.90
19168;DHT22;9716;53.114;18.040;2023-11-19T13:28:52;2.80;99.90
19168;DHT22;9716;53.114;18.040;2023-11-19T13:31:22;2.80;99.90
19168;DHT22;9716;53.114;18.040;2023-11-19T13:33:51;2.80;99.90
19168;DHT22;9716;53.114;18.040;2023-11-19T13:36:19;2.80;99.90
19168;DHT22;9716;53.114;18.040;2023-11-19T13:38:48;2.80;99.90
19168;DHT22;9716;53.114;18.040;2023-11-19T13:41:16;2.80;99.90
19168;DHT22;9716;53.114;18.040;2023-11-19T13:43:45;2.80;99.90
19168;DHT22;9716;53.114;18.040;2023-11-19T13:46:13;2.80;99.90
19168;DHT22;9716;53.114;18.040;2023-11-19T13:48:43;2.80;99.90
19168;DHT22;9716;53.114;18.040;2023-11-19T13:51:12;2.80;99.90
19168;DHT22;9716;53.114;18.040;2023-11-19T13:53:40;2.80;99.90
19168;DHT22;9716;53.114;18.040;2023-11-19T13:56:13;2.80;99.90
19168;DHT22;9716;53.114;18.040;2023-11-19T13:58:41;2.80;99.90
19168;DHT22;9716;53.114;18.040;2023-11-19T14:01:11;2.80;99.90
19168;DHT22;9716;53.114;18.040;2023-11-19T14:03:41;2.80;99.90
19168;DHT22;9716;53.114;18.040;2023-11-19T14:06:11;2.80;99.90
19168;DHT22;9716;53.114;18.040;2023-11-19T14:08:40;2.80;99.90
19168;DHT22;9716;53.114;18.040;2023-11-19T14:11:08;2.80;99.90
19168;DHT22;9716;53.114;18.040;2023-11-19T14:13:37;2.80;99.90
19168;DHT22;9716;53.114;18.040;2023-11-19T14:16:06;2.80;99.90
19168;DHT22;9716;53.114;18.040;2023-11-19T14:18:36;2.80;99.90
19168;DHT22;9716;53.114;18.040;2023-11-19T14:21:06;2.70;99.90
19168;DHT22;9716;53.114;18.040;2023-11-19T14:23:35;2.80;99.90
19168;DHT22;9716;53.114;18.040;2023-11-19T14:26:04;2.80;99.90
19168;DHT22;9716;53.114;18.040;2023-11-19T14:28:33;2.70;99.90
19168;DHT22;9716;53.114;18.040;2023-11-19T14:31:01;2.70;99.90
19168;DHT22;9716;53.114;18.040;2023-11-19T14:33:29;2.80;99.90
19168;DHT22;9716;53.114;18.040;2023-11-19T14:35:59;2.70;99.90
19168;DHT22;9716;53.114;18.040;2023-11-19T14:38:28;2.70;99.90
19168;DHT22;9716;53.114;18.040;2023-11-19T14:40:57;2.70;99.90
19168;DHT22;9716;53.114;18.040;2023-11-19T14:43:26;2.70;99.90
19168;DHT22;9716;53.114;18.040;2023-11-19T14:45:55;2.70;99.90
19168;DHT22;9716;53.114;18.040;2023-11-19T14:48:24;2.70;99.90
19168;DHT22;9716;53.114;18.040;2023-11-19T14:50:52;2.70;99.90
19168;DHT22;9716;53.114;18.040;2023-11-19T14:53:20;2.60;99.90
19168;DHT22;9716;53.114;18.040;2023-11-19T14:55:49;2.60;99.90
19168;DHT22;9716;53.114;18.040;2023-11-19T14:58:19;2.60;99.90
19168;DHT22;9716;53.114;18.040;2023-11-19T15:00:48;2.60;99.90
19168;DHT22;9716;53.114;18.040;2023-11-19T15:03:16;2.70;99.90
19168;DHT22;9716;53.114;18.040;2023-11-19T15:05:46;2.70;99.90
19168;DHT22;9716;53.114;18.040;2023-11-19T15:08:15;2.70;99.90
19168;DHT22;9716;53.114;18.040;2023-11-19T15:10:44;2.70;99.90
19168;DHT22;9716;53.114;18.040;2023-11-19T15:13:14;2.70;99.90
19168;DHT22;9716;53.114;18.040;2023-11-19T15:15:44;2.70;99.90
19168;DHT22;9716;53.114;18.040;2023-11-19T15:18:12;2.70;99.90
19168;DHT22;9716;53.114;18.040;2023-11-19T15:20:44;2.70;99.90
19168;DHT22;9716;53.114;18.040;2023-11-19T15:23:14;2.70;99.90
19168;DHT22;9716;53.114;18.040;2023-11-19T15:25:43;2.70;99.90
19168;DHT22;9716;53.114;18.040;2023-11-19T15:28:11;2.70;99.90
19168;DHT22;9716;53.114;18.040;2023-11-19T15:30:40;2.70;99.90
19168;DHT22;9716;53.114;18.040;2023-11-19T15:33:09;2.70;99.90
19168;DHT22;9716;53.114;18.040;2023-11-19T15:35:38;2.60;99.90
19168;DHT22;9716;53.114;18.040;2023-11-19T15:38:07;2.60;99.90
19168;DHT22;9716;53.114;18.040;2023-11-19T15:40:37;2.60;99.90
19168;DHT22;9716;53.114;18.040;2023-11-19T15:43:05;2.60;99.90
19168;DHT22;9716;53.114;18.040;2023-11-19T15:45:34;2.70;99.90
19168;DHT22;9716;53.114;18.040;2023-11-19T15:48:05;2.60;99.90
19168;DHT22;9716;53.114;18.040;2023-11-19T15:50:35;2.70;99.90
19168;DHT22;9716;53.114;18.040;2023-11-19T15:53:03;2.70;99.90
19168;DHT22;9716;53.114;18.040;2023-11-19T15:55:32;2.70;99.90
19168;DHT22;9716;53.114;18.040;2023-11-19T15:58:00;2.70;99.90
19168;DHT22;9716;53.114;18.040;2023-11-19T16:00:29;2.70;99.90
19168;DHT22;9716;53.114;18.040;2023-11-19T16:02:58;2.60;99.90